Time,TemperatureF,DewpointF,PressureIn,WindDirection,WindDirectionDegrees,WindSpeedMPH,WindSpeedGustMPH,Humidity,HourlyPrecipIn,Conditions,Clouds,dailyrainin,SoftwareType,DateUTC
2013-11-14 00:13:00,24.0,20.0,-100.00,SW,224,2.0,3.0,82,0.00,,,0.00,,2013-11-14 05:13:00,
2013-11-14 00:23:00,24.0,20.0,-100.00,WSW,247,2.0,3.0,84,0.00,,,0.00,,2013-11-14 05:23:00,
2013-11-14 00:34:00,24.0,20.0,-100.00,WSW,247,2.0,3.0,84,0.00,,,0.00,,2013-11-14 05:34:00,
2013-11-14 00:53:00,24.0,19.0,-100.00,SW,220,2.0,5.0,81,0.00,,,0.00,,2013-11-14 05:53:00,
2013-11-14 01:12:00,24.0,19.0,-100.00,South,175,1.0,3.0,82,0.00,,,0.00,,2013-11-14 06:12:00,
2013-11-14 01:22:00,24.0,18.0,-100.00,SSW,208,2.0,7.0,79,0.00,,,0.00,,2013-11-14 06:22:00,
2013-11-14 01:32:00,24.0,18.0,-100.00,SSW,208,2.0,7.0,79,0.00,,,0.00,,2013-11-14 06:32:00,
2013-11-14 01:52:00,24.0,18.0,-100.00,WSW,239,1.0,3.0,79,0.00,,,0.00,,2013-11-14 06:52:00,
2013-11-14 02:11:00,23.0,19.0,-100.00,SW,219,2.0,4.0,85,0.00,,,0.00,,2013-11-14 07:11:00,
2013-11-14 02:22:00,22.0,19.0,-100.00,SSW,213,2.0,4.0,87,0.00,,,0.00,,2013-11-14 07:22:00,
2013-11-14 02:32:00,22.0,19.0,-100.00,SSW,213,2.0,4.0,87,0.00,,,0.00,,2013-11-14 07:32:00,
2013-11-14 02:53:00,22.0,18.0,-100.00,SW,222,2.0,4.0,87,0.00,,,0.00,,2013-11-14 07:53:00,
2013-11-14 03:12:00,22.0,18.0,-100.00,SW,232,2.0,3.0,86,0.00,,,0.00,,2013-11-14 08:12:00,
2013-11-14 03:22:00,22.0,19.0,-100.00,WSW,243,2.0,4.0,85,0.00,,,0.00,,2013-11-14 08:22:00,
2013-11-14 03:32:00,22.0,19.0,-100.00,WSW,243,2.0,4.0,85,0.00,,,0.00,,2013-11-14 08:32:00,
2013-11-14 03:53:00,21.0,19.0,-100.00,SW,230,2.0,4.0,89,0.00,,,0.00,,2013-11-14 08:53:00,
2013-11-14 04:11:00,21.0,19.0,-100.00,SW,215,2.0,4.0,90,0.00,,,0.00,,2013-11-14 09:11:00,
2013-11-14 04:53:00,21.0,18.0,-100.00,WSW,251,2.0,4.0,90,0.00,,,0.00,,2013-11-14 09:53:00,
2013-11-14 05:52:00,21.0,19.0,-100.00,SW,234,3.0,5.0,91,0.00,,,0.00,,2013-11-14 10:52:00,
2013-11-14 06:11:00,20.0,18.0,-100.00,SW,224,2.0,5.0,91,0.00,,,0.00,,2013-11-14 11:11:00,
2013-11-14 06:22:00,20.0,18.0,-100.00,SW,233,3.0,5.0,92,0.00,,,0.00,,2013-11-14 11:22:00,
2013-11-14 06:32:00,20.0,18.0,-100.00,SW,233,3.0,5.0,92,0.00,,,0.00,,2013-11-14 11:32:00,
2013-11-14 06:52:00,20.0,18.0,-100.00,SW,229,3.0,5.0,92,0.00,,,0.00,,2013-11-14 11:52:00,
2013-11-14 07:12:00,20.0,18.0,-100.00,SW,220,3.0,5.0,92,0.00,,,0.00,,2013-11-14 12:12:00,
2013-11-14 07:22:00,20.0,18.0,-100.00,SW,217,2.0,4.0,93,0.00,,,0.00,,2013-11-14 12:22:00,
2013-11-14 07:32:00,20.0,18.0,-100.00,SW,217,2.0,4.0,93,0.00,,,0.00,,2013-11-14 12:32:00,
2013-11-14 08:22:00,22.0,19.0,-100.00,SSW,213,4.0,6.0,89,0.00,,,0.00,,2013-11-14 13:22:00,
2013-11-14 08:32:00,22.0,19.0,-100.00,SSW,213,4.0,6.0,89,0.00,,,0.00,,2013-11-14 13:32:00,
2013-11-14 08:52:00,24.0,20.0,-100.00,SSW,210,4.0,7.0,86,0.00,,,0.00,,2013-11-14 13:52:00,
2013-11-14 09:11:00,27.0,21.0,-100.00,SW,219,4.0,8.0,78,0.00,,,0.00,,2013-11-14 14:11:00,
2013-11-14 09:22:00,29.0,20.0,-100.00,SSW,210,4.0,8.0,71,0.00,,,0.00,,2013-11-14 14:22:00,
2013-11-14 09:32:00,29.0,20.0,-100.00,SSW,210,4.0,8.0,71,0.00,,,0.00,,2013-11-14 14:32:00,
2013-11-14 09:52:00,31.0,20.0,-100.00,SW,215,4.0,7.0,64,0.00,,,0.00,,2013-11-14 14:52:00,
2013-11-14 10:02:00,31.0,20.0,-100.00,SW,215,4.0,7.0,64,0.00,,,0.00,,2013-11-14 15:02:00,
2013-11-14 10:53:00,39.0,19.0,-100.00,SSW,202,4.0,7.0,43,0.00,,,0.00,,2013-11-14 15:53:00,
2013-11-14 11:13:00,42.0,19.0,-100.00,SW,215,3.0,6.0,38,0.00,,,0.00,,2013-11-14 16:13:00,
2013-11-14 11:23:00,42.0,19.0,-100.00,SW,215,3.0,6.0,38,0.00,,,0.00,,2013-11-14 16:23:00,
2013-11-14 12:13:00,51.0,14.0,-100.00,SSW,202,4.0,8.0,23,0.00,,,0.00,,2013-11-14 17:13:00,
2013-11-14 12:23:00,51.0,12.0,-100.00,SSW,192,5.0,9.0,21,0.00,,,0.00,,2013-11-14 17:23:00,
2013-11-14 12:33:00,51.0,12.0,-100.00,SSW,192,5.0,9.0,21,0.00,,,0.00,,2013-11-14 17:33:00,
2013-11-14 12:52:00,53.0,14.0,-100.00,SSW,209,4.0,9.0,21,0.00,,,0.00,,2013-11-14 17:52:00,
2013-11-14 13:02:00,53.0,14.0,-100.00,SSW,209,4.0,9.0,21,0.00,,,0.00,,2013-11-14 18:02:00,
2013-11-14 13:22:00,56.0,15.0,-100.00,SSW,198,3.0,6.0,19,0.00,,,0.00,,2013-11-14 18:22:00,
2013-11-14 13:33:00,56.0,15.0,-100.00,SSW,198,3.0,6.0,19,0.00,,,0.00,,2013-11-14 18:33:00,
2013-11-14 13:52:00,57.0,16.0,-100.00,SSE,151,2.0,6.0,20,0.00,,,0.00,,2013-11-14 18:52:00,
2013-11-14 14:11:00,58.0,15.0,-100.00,South,172,4.0,6.0,18,0.00,,,0.00,,2013-11-14 19:11:00,
2013-11-14 14:22:00,58.0,15.0,-100.00,South,172,4.0,6.0,18,0.00,,,0.00,,2013-11-14 19:22:00,
2013-11-14 15:12:00,59.0,15.0,-100.00,North,1,2.0,4.0,18,0.00,,,0.00,,2013-11-14 20:12:00,
2013-11-14 15:22:00,61.0,13.0,-100.00,NE,40,2.0,5.0,15,0.00,,,0.00,,2013-11-14 20:22:00,
2013-11-14 15:32:00,61.0,13.0,-100.00,NE,40,2.0,5.0,15,0.00,,,0.00,,2013-11-14 20:32:00,
2013-11-14 15:52:00,61.0,14.0,-100.00,NNE,21,2.0,5.0,15,0.00,,,0.00,,2013-11-14 20:52:00,
2013-11-14 16:11:00,62.0,12.0,-100.00,South,174,3.0,6.0,14,0.00,,,0.00,,2013-11-14 21:11:00,
2013-11-14 16:22:00,63.0,12.0,-100.00,SSW,208,4.0,7.0,14,0.00,,,0.00,,2013-11-14 21:22:00,
2013-11-14 16:33:00,63.0,12.0,-100.00,SSW,208,4.0,7.0,14,0.00,,,0.00,,2013-11-14 21:33:00,
2013-11-14 16:53:00,62.0,14.0,-100.00,SSW,206,4.0,6.0,15,0.00,,,0.00,,2013-11-14 21:53:00,
2013-11-14 17:13:00,60.0,14.0,-100.00,SSW,205,3.0,7.0,16,0.00,,,0.00,,2013-11-14 22:13:00,
2013-11-14 17:23:00,58.0,13.0,-100.00,SW,229,2.0,3.0,17,0.00,,,0.00,,2013-11-14 22:23:00,
2013-11-14 17:33:00,58.0,13.0,-100.00,SW,229,2.0,3.0,17,0.00,,,0.00,,2013-11-14 22:33:00,
2013-11-14 17:53:00,54.0,17.0,-100.00,West,263,1.0,2.0,23,0.00,,,0.00,,2013-11-14 22:53:00,
2013-11-14 18:12:00,50.0,18.0,-100.00,SE,138,1.0,3.0,28,0.00,,,0.00,,2013-11-14 23:12:00,
2013-11-14 18:22:00,47.0,20.0,-100.00,NW,318,1.0,5.0,35,0.00,,,0.00,,2013-11-14 23:22:00,
2013-11-14 18:33:00,47.0,20.0,-100.00,NW,318,1.0,5.0,35,0.00,,,0.00,,2013-11-14 23:33:00,
2013-11-14 18:52:00,45.0,21.0,-100.00,West,272,1.0,3.0,38,0.00,,,0.00,,2013-11-14 23:52:00,
2013-11-14 19:02:00,45.0,21.0,-100.00,West,272,1.0,3.0,38,0.00,,,0.00,,2013-11-15 00:02:00,
2013-11-14 19:22:00,41.0,21.0,-100.00,NE,52,2.0,4.0,43,0.00,,,0.00,,2013-11-15 00:22:00,
2013-11-14 19:32:00,41.0,21.0,-100.00,NE,52,2.0,4.0,43,0.00,,,0.00,,2013-11-15 00:32:00,
2013-11-14 19:42:00,41.0,21.0,-100.00,NE,52,2.0,4.0,43,0.00,,,0.00,,2013-11-15 00:42:00,